Aérodrome :
LOGIN :

S'inscrire | Disclaimer

   EN    FR    IT 

 










Légende :    VFR   VFR Marginal   IFR   IFR Intensif   IFR Très Intensif
Visi : 
Plafond : 
>= 8 km
>= 3000ft
5 à 8 km
1000 à 3000 ft
1500m à 5 km
500 à 1000 ft
800 à 1500m
200 à 500 ft
< 800m
< 200 ft
Symboles :   Orages  Brouillard  Fortes neiges  Fortes précipitations  Vent > 20 kt
SIGMETs :   Divers  Orages  Givrage  Turbulence  Onde Orograph.  Cendres Volcan.






- Altitude de l'aérodrome : 327 ft
- Code IATA : BHX


EGBB - Birmingham

DERNIER METAR :
  • 210550Z 10009KT 9000 OVC014 03/01 Q1005

METARs EXPIRÉS :
  • 210520Z 10008KT 9000 BKN018 03/01 Q1006
  • 210450Z 08006KT 8000 BKN018 03/01 Q1006
  • 210420Z 10007KT 9999 OVC018 03/01 Q1006
  • 210350Z AUTO 10007KT 9999 OVC015/// 03/01 Q1006
  • 210320Z AUTO 10008KT 9999 OVC015/// 03/01 Q1006

TAF TAF EGBB
Valide du 21 à 06h jusqu'au 22 à 06h UTC


210504Z 2106/2206 11009KT 9999 BKN018
TEMPO 2106/2115 9000 BKN012
PROB30
TEMPO 2106/2115 BKN009
BECMG 2115/2118 7000 BKN012
PROB40 2115/2124 4000 BR BKN003
TEMPO 2200/2206 RA BKN005
ATIS : +44 121 780 0910



MET'MAP, la Météo Aéronautique d'un coup d'oeil ! - Copyright ORBIFLY Décembre 2007 - Disclaimer

ORBIFLY MET'MAP TEAM :

Programmation & Développement : Alexandra Zaïnal
Conception & Développement : Baudouin d'Aumeries
Co-Programmation & Développement : Marc-Olivier Méhu
Soutien technique & logistique : Manuel Goepfert

Contact : metmap@orbifly.com




SOURCES & CREDITS :

   NOAA